OCN1DB EDDM-EGCC
Flight info
| Callsign | OCN1DB |
|---|---|
| Flight time | N/A |
| Altitude | 34000 |
| Route | INPUD2S INPUD Y102 ALIBU DCT MASEK DCT ARPEG DCT GALSO Q63 ERING L179 LAM UN57 WELIN T420 ELVOS |
| Aircraft | A320/M-SDE2E3FGIJ1LORWXYZ/HB1 |
Departure
| Time | 2026-05-06 09:18 |
|---|---|
| Airport | Munich Airport (EDDM) |
Arrival
| Time | N/A |
|---|---|
| Airport | Manchester Airport (EGCC) |
| Time | Latitude | Longitude | Altitude | Speed | Heading |
|---|---|---|---|---|---|
| 2026-05-06 09:05 | 48.35018 | 11.79355 | 1467 ft | 0 kts | 263° |
| 2026-05-06 09:10 | 48.35019 | 11.79357 | 1467 ft | 1 kts | 263° |
| 2026-05-06 09:11 | 48.35020 | 11.79381 | 1458 ft | 3 kts | 262° |
| 2026-05-06 09:11 | 48.35023 | 11.79411 | 1463 ft | 3 kts | 261° |
| 2026-05-06 09:11 | 48.35027 | 11.79441 | 1459 ft | 3 kts | 258° |
| 2026-05-06 09:11 | 48.35031 | 11.79470 | 1459 ft | 3 kts | 253° |
| 2026-05-06 09:12 | 48.35038 | 11.79499 | 1463 ft | 3 kts | 240° |
| 2026-05-06 09:12 | 48.35048 | 11.79520 | 1459 ft | 3 kts | 202° |
| 2026-05-06 09:12 | 48.35056 | 11.79524 | 1458 ft | 0 kts | 174° |
| 2026-05-06 09:15 | 48.35035 | 11.79527 | 1461 ft | 5 kts | 174° |
| 2026-05-06 09:15 | 48.34986 | 11.79535 | 1461 ft | 9 kts | 174° |
| 2026-05-06 09:15 | 48.34908 | 11.79548 | 1458 ft | 13 kts | 174° |
| 2026-05-06 09:16 | 48.34835 | 11.79559 | 1467 ft | 0 kts | 174° |
| 2026-05-06 09:16 | 48.34472 | 11.80386 | 1466 ft | 0 kts | 263° |
| 2026-05-06 09:17 | 48.34471 | 11.80377 | 1467 ft | 7 kts | 263° |
| 2026-05-06 09:17 | 48.34438 | 11.79932 | 1464 ft | 81 kts | 264° |
| 2026-05-06 09:17 | 48.34349 | 11.78730 | 1458 ft | 146 kts | 264° |
| 2026-05-06 09:18 | 48.34214 | 11.76975 | 1565 ft | 187 kts | 263° |
| 2026-05-06 09:18 | 48.34046 | 11.74915 | 1941 ft | 206 kts | 263° |
| 2026-05-06 09:18 | 48.33926 | 11.73448 | 2244 ft | 212 kts | 263° |
| 2026-05-06 09:18 | 48.33744 | 11.71240 | 2711 ft | 219 kts | 264° |
| 2026-05-06 09:19 | 48.33798 | 11.68941 | 3208 ft | 223 kts | 283° |
| 2026-05-06 09:19 | 48.34376 | 11.66789 | 3780 ft | 222 kts | 303° |
| 2026-05-06 09:19 | 48.35398 | 11.65095 | 4454 ft | 217 kts | 323° |
| 2026-05-06 09:19 | 48.36721 | 11.64057 | 5083 ft | 213 kts | 344° |
| 2026-05-06 09:20 | 48.38168 | 11.63537 | 5609 ft | 217 kts | 348° |
| 2026-05-06 09:20 | 48.39660 | 11.63063 | 6103 ft | 221 kts | 348° |
| 2026-05-06 09:20 | 48.41187 | 11.62637 | 6485 ft | 229 kts | 350° |
| 2026-05-06 09:20 | 48.42810 | 11.62195 | 6725 ft | 244 kts | 349° |
| 2026-05-06 09:21 | 48.44561 | 11.61767 | 6937 ft | 266 kts | 352° |
| 2026-05-06 09:21 | 48.46467 | 11.61421 | 7240 ft | 286 kts | 354° |
| 2026-05-06 09:21 | 48.48503 | 11.61146 | 7752 ft | 299 kts | 355° |
| 2026-05-06 09:21 | 48.50600 | 11.60936 | 8417 ft | 305 kts | 355° |
| 2026-05-06 09:22 | 48.52720 | 11.60532 | 9114 ft | 309 kts | 345° |
| 2026-05-06 09:22 | 48.54781 | 11.59573 | 9822 ft | 312 kts | 341° |
| 2026-05-06 09:22 | 48.56877 | 11.58678 | 10522 ft | 313 kts | 345° |
| 2026-05-06 09:22 | 48.59032 | 11.57931 | 10942 ft | 327 kts | 345° |
| 2026-05-06 09:23 | 48.61290 | 11.57029 | 11253 ft | 342 kts | 342° |
| 2026-05-06 09:23 | 48.63585 | 11.55948 | 11843 ft | 348 kts | 339° |
| 2026-05-06 09:23 | 48.65882 | 11.54730 | 12522 ft | 352 kts | 338° |
| 2026-05-06 09:23 | 48.68189 | 11.53416 | 13181 ft | 357 kts | 337° |
| 2026-05-06 09:24 | 48.70516 | 11.52045 | 13803 ft | 361 kts | 336° |
| 2026-05-06 09:24 | 48.72865 | 11.50644 | 14418 ft | 365 kts | 336° |
| 2026-05-06 09:24 | 48.75237 | 11.49233 | 15027 ft | 367 kts | 336° |
| 2026-05-06 09:24 | 48.77622 | 11.47827 | 15594 ft | 369 kts | 336° |
| 2026-05-06 09:25 | 48.80024 | 11.46424 | 16161 ft | 371 kts | 336° |
| 2026-05-06 09:25 | 48.82365 | 11.45104 | 16694 ft | 347 kts | 337° |
| 2026-05-06 09:25 | 48.84542 | 11.43847 | 17554 ft | 321 kts | 329° |
| 2026-05-06 09:25 | 48.86245 | 11.42015 | 18346 ft | 292 kts | 312° |
| 2026-05-06 09:26 | 48.87544 | 11.39764 | 18727 ft | 276 kts | 295° |
| 2026-05-06 09:26 | 48.88233 | 11.37130 | 18897 ft | 264 kts | 273° |
| 2026-05-06 09:26 | 48.88239 | 11.34359 | 18835 ft | 261 kts | 251° |
| 2026-05-06 09:26 | 48.87516 | 11.31954 | 19184 ft | 243 kts | 229° |
| 2026-05-06 09:27 | 48.86250 | 11.30283 | 19185 ft | 244 kts | 205° |
| 2026-05-06 09:27 | 48.84549 | 11.29583 | 18726 ft | 271 kts | 181° |
| 2026-05-06 09:27 | 48.82604 | 11.30129 | 18259 ft | 300 kts | 160° |
| 2026-05-06 09:27 | 48.80664 | 11.31607 | 17860 ft | 323 kts | 150° |
| 2026-05-06 09:28 | 48.78787 | 11.33663 | 17491 ft | 342 kts | 145° |
| 2026-05-06 09:28 | 48.76844 | 11.35874 | 17090 ft | 357 kts | 144° |
| 2026-05-06 09:28 | 48.74903 | 11.38276 | 16666 ft | 354 kts | 139° |
| 2026-05-06 09:28 | 48.73192 | 11.40826 | 16158 ft | 336 kts | 134° |
| 2026-05-06 09:29 | 48.71705 | 11.43491 | 15668 ft | 334 kts | 132° |
| 2026-05-06 09:29 | 48.70255 | 11.46286 | 15212 ft | 340 kts | 131° |
| 2026-05-06 09:29 | 48.68820 | 11.49167 | 14830 ft | 350 kts | 128° |
| 2026-05-06 09:29 | 48.67415 | 11.52238 | 14483 ft | 368 kts | 127° |
| 2026-05-06 09:30 | 48.65317 | 11.54425 | 13085 ft | 384 kts | 168° |
| 2026-05-06 09:30 | 48.62468 | 11.53965 | 10108 ft | 455 kts | 193° |
| 2026-05-06 09:30 | 48.58746 | 11.52425 | 1436 ft | 0 kts | 192° |